Time;durP1;ratioP1;P1;durP2;ratioP2;P2;SDS_P1;SDS_P2;PMS_P1;PMS_P2;Temp;Humidity;BMP_temperature;BMP_pressure;BME280_temperature;BME280_humidity;BME280_pressure;Samples;Min_cycle;Max_cycle;Signal;HPM_P1;HPM_P2
2021/07/09 00:01:54;;;;;;;0.70;0.70;;;25.90;49.00;;;-147.20;100.00;58430.41;5114681;28;20403;-52
2021/07/09 00:04:22;;;;;;;1.08;0.88;;;25.90;49.00;;;-147.20;100.00;58430.41;5114156;28;20053;-50
2021/07/09 00:06:48;;;;;;;1.23;1.10;;;25.90;49.00;;;-147.20;100.00;58430.41;5114246;28;20054;-50
2021/07/09 00:09:14;;;;;;;0.90;0.90;;;25.90;49.10;;;-147.20;100.00;58430.41;5112999;28;20040;-49
2021/07/09 00:11:43;;;;;;;1.05;1.00;;;25.80;49.00;;;-147.20;100.00;58430.41;5114207;28;20055;-49
2021/07/09 00:14:10;;;;;;;1.95;1.13;;;25.80;49.00;;;-147.20;100.00;58430.41;5114524;28;20054;-52
2021/07/09 00:16:37;;;;;;;1.13;1.08;;;25.80;49.00;;;-147.20;100.00;58430.41;5095908;28;20123;-50
2021/07/09 00:19:05;;;;;;;0.73;0.70;;;25.80;49.10;;;-147.20;100.00;58430.41;5114050;28;20047;-48
2021/07/09 00:21:35;;;;;;;1.30;1.20;;;25.80;49.10;;;-147.20;100.00;58430.41;5114289;28;20123;-51
2021/07/09 00:24:04;;;;;;;1.15;0.90;;;25.80;49.10;;;-147.20;100.00;58430.41;5114261;28;20048;-51
2021/07/09 00:26:30;;;;;;;0.90;0.90;;;25.80;49.10;;;-147.20;100.00;58430.41;5113993;28;20048;-50
2021/07/09 00:28:57;;;;;;;0.70;0.70;;;25.80;49.10;;;-147.20;100.00;58430.41;5113690;28;20471;-50
2021/07/09 00:31:25;;;;;;;0.95;0.95;;;25.80;49.10;;;-147.20;100.00;58430.41;5113932;28;20078;-55
2021/07/09 00:33:50;;;;;;;1.20;0.90;;;25.80;49.10;;;-147.20;100.00;58430.41;5095631;28;20043;-53
2021/07/09 00:36:17;;;;;;;1.20;1.10;;;25.80;49.20;;;-147.20;100.00;58430.41;5114029;28;20046;-52
2021/07/09 00:38:44;;;;;;;0.90;0.90;;;25.80;49.20;;;-147.20;100.00;58430.41;5114028;28;20052;-49
2021/07/09 00:41:11;;;;;;;0.98;0.88;;;25.80;49.20;;;-147.20;100.00;58430.41;5113976;28;20043;-50
2021/07/09 00:43:37;;;;;;;1.33;1.10;;;25.80;49.20;;;-147.20;100.00;58430.41;5113724;28;20039;-54
2021/07/09 00:46:03;;;;;;;0.90;0.90;;;25.80;49.30;;;-147.20;100.00;58430.41;5113956;28;20036;-52
2021/07/09 00:48:29;;;;;;;0.85;0.85;;;25.70;49.20;;;-147.20;100.00;58430.41;5113635;28;20047;-50
2021/07/09 00:51:00;;;;;;;1.05;1.00;;;25.70;49.20;;;-147.20;100.00;58430.41;5113632;28;20058;-52
2021/07/09 00:53:26;;;;;;;0.93;0.93;;;25.70;49.20;;;-147.20;100.00;58430.41;5113598;28;20395;-49
2021/07/09 00:55:53;;;;;;;1.48;0.95;;;25.70;49.30;;;-147.20;100.00;58430.41;5113431;28;20053;-51
2021/07/09 00:58:19;;;;;;;1.23;1.15;;;25.70;49.30;;;-147.20;100.00;58430.41;5113372;28;20445;-54
2021/07/09 01:00:45;;;;;;;0.90;0.90;;;25.70;49.30;;;-147.20;100.00;58430.41;5095788;28;20097;-49
2021/07/09 01:03:11;;;;;;;1.40;0.90;;;25.70;49.30;;;-147.20;100.00;58430.41;5113373;28;20126;-48
2021/07/09 01:05:37;;;;;;;0.80;0.80;;;25.70;49.30;;;-147.20;100.00;58430.41;5094671;28;20876;-50
2021/07/09 01:08:04;;;;;;;1.40;1.10;;;25.70;49.30;;;-147.20;100.00;58430.41;5095227;28;20104;-48
2021/07/09 01:10:30;;;;;;;1.23;1.00;;;25.70;49.40;;;-147.20;100.00;58430.41;5113346;28;20047;-48
2021/07/09 01:12:57;;;;;;;1.05;0.95;;;25.60;49.30;;;-147.20;100.00;58430.41;5113105;28;20048;-52
2021/07/09 01:15:24;;;;;;;0.93;0.93;;;25.60;49.40;;;-147.20;100.00;58430.41;5095071;28;20063;-52
2021/07/09 01:17:51;;;;;;;1.08;0.98;;;25.60;49.40;;;-147.20;100.00;58430.41;5112844;28;20123;-51
2021/07/09 01:20:20;;;;;;;1.13;1.00;;;25.60;49.40;;;-147.20;100.00;58430.41;5113211;28;20074;-48
2021/07/09 01:22:48;;;;;;;1.10;1.00;;;25.60;49.40;;;-147.20;100.00;58430.41;5113396;28;20072;-46
2021/07/09 01:25:24;;;;;;;1.13;1.00;;;25.60;49.40;;;-147.20;100.00;58430.41;5113025;28;20063;-51
2021/07/09 01:28:04;;;;;;;1.20;1.10;;;25.60;49.50;;;-147.20;100.00;58430.41;5113123;28;20067;-49
2021/07/09 01:30:30;;;;;;;1.00;0.95;;;25.60;49.50;;;-147.20;100.00;58430.41;5113189;28;20039;-47
2021/07/09 01:32:57;;;;;;;1.02;1.00;;;25.60;49.50;;;-147.20;100.00;58430.41;5113081;28;20044;-50
2021/07/09 01:35:25;;;;;;;1.30;1.20;;;25.60;49.60;;;-147.20;100.00;58430.41;5112927;28;20526;-48
2021/07/09 01:38:08;;;;;;;1.20;1.10;;;25.60;49.60;;;-147.20;100.00;58430.41;5113270;28;20054;-52
2021/07/09 01:40:38;;;;;;;1.00;1.00;;;25.60;49.60;;;-147.20;100.00;58430.41;5109288;28;20047;-48
2021/07/09 01:43:05;;;;;;;0.82;0.82;;;25.60;49.60;;;-147.20;100.00;58430.41;5113056;28;20061;-52
2021/07/09 01:45:31;;;;;;;1.27;1.17;;;25.60;49.60;;;-147.20;100.00;58430.41;5112877;28;20088;-48
2021/07/09 01:47:59;;;;;;;0.90;0.90;;;25.60;49.60;;;-147.20;100.00;58430.41;5112545;28;20047;-48
2021/07/09 01:50:26;;;;;;;1.08;1.00;;;25.60;49.60;;;-147.20;100.00;58430.41;5113026;28;20426;-51
2021/07/09 01:52:53;;;;;;;1.02;0.93;;;25.60;49.60;;;-147.20;100.00;58430.41;5113148;28;20514;-51
2021/07/09 01:55:19;;;;;;;1.00;1.00;;;25.60;49.60;;;-147.20;100.00;58430.41;5112640;28;20097;-49
2021/07/09 01:57:46;;;;;;;0.80;0.80;;;25.60;49.60;;;-147.20;100.00;58430.41;5112696;28;20559;-53
2021/07/09 02:00:19;;;;;;;1.10;1.00;;;25.50;49.60;;;-147.20;100.00;58430.41;5112437;28;20071;-51
2021/07/09 02:02:46;;;;;;;1.00;0.90;;;25.50;49.60;;;-147.20;100.00;58430.41;5112845;28;20441;-52
2021/07/09 02:05:16;;;;;;;1.13;1.02;;;25.50;49.60;;;-147.20;100.00;58430.41;5112327;28;20044;-49
2021/07/09 02:07:45;;;;;;;1.13;0.95;;;25.50;49.70;;;-147.20;100.00;58430.41;5112997;28;20130;-49
2021/07/09 02:10:14;;;;;;;0.90;0.90;;;25.50;49.70;;;-147.20;100.00;58430.41;5112224;28;20048;-50
2021/07/09 02:12:40;;;;;;;1.30;1.20;;;25.50;49.70;;;-147.20;100.00;58430.41;5112519;28;20052;-49
2021/07/09 02:15:11;;;;;;;1.10;1.00;;;25.50;49.70;;;-147.20;100.00;58430.41;5112110;28;20055;-49
2021/07/09 02:17:39;;;;;;;1.20;1.10;;;25.50;49.70;;;-147.20;100.00;58430.41;5115648;28;20409;-50
2021/07/09 02:20:08;;;;;;;1.10;1.10;;;25.50;49.80;;;-147.20;100.00;58430.41;5115569;28;20135;-48
2021/07/09 02:22:33;;;;;;;1.00;1.00;;;25.50;49.80;;;-147.20;100.00;58430.41;5115965;28;20405;-46
2021/07/09 02:25:05;;;;;;;0.90;0.90;;;25.50;49.80;;;-147.20;100.00;58430.41;5114506;28;20047;-51
2021/07/09 02:27:35;;;;;;;0.90;0.90;;;25.40;49.80;;;-147.20;100.00;58430.41;5116113;28;20054;-48
2021/07/09 02:30:04;;;;;;;1.10;1.00;;;25.50;49.90;;;-147.20;100.00;58430.41;5115890;28;20043;-51
2021/07/09 02:32:30;;;;;;;1.02;1.00;;;25.40;49.80;;;-147.20;100.00;58430.41;5115648;28;20135;-51
2021/07/09 02:34:56;;;;;;;1.15;1.05;;;25.50;49.90;;;-147.20;100.00;58430.41;5115409;28;20130;-50
2021/07/09 02:37:22;;;;;;;1.10;1.00;;;25.40;49.80;;;-147.20;100.00;58430.41;5115732;28;20440;-47
2021/07/09 02:39:48;;;;;;;1.00;1.00;;;25.40;49.80;;;-147.20;100.00;58430.41;5115606;28;20059;-54
2021/07/09 02:42:14;;;;;;;1.40;1.30;;;25.40;49.80;;;-147.20;100.00;58430.41;5115641;28;20069;-48
2021/07/09 02:44:39;;;;;;;0.75;0.75;;;25.40;50.40;;;-147.20;100.00;58430.41;5115951;28;20043;-50
2021/07/09 02:47:05;;;;;;;1.08;1.08;;;25.40;49.90;;;-147.20;100.00;58430.41;5115502;28;20059;-48
2021/07/09 02:49:31;;;;;;;1.17;1.08;;;25.40;49.90;;;-147.20;100.00;58430.41;5115978;28;20063;-50
2021/07/09 02:51:57;;;;;;;0.80;0.80;;;25.40;49.90;;;-147.20;100.00;58430.41;5115566;28;20044;-47
2021/07/09 02:54:23;;;;;;;1.20;1.10;;;25.40;49.90;;;-147.20;100.00;58430.41;5115379;28;20394;-49
2021/07/09 02:56:48;;;;;;;1.75;1.02;;;25.40;50.00;;;-147.20;100.00;58430.41;5115274;28;20054;-49
2021/07/09 02:59:14;;;;;;;1.33;1.23;;;25.40;50.00;;;-147.20;100.00;58430.41;5115301;28;20498;-48
2021/07/09 03:01:43;;;;;;;1.20;1.10;;;25.40;50.00;;;-147.20;100.00;58430.41;5115619;28;20117;-52
2021/07/09 03:04:11;;;;;;;1.30;1.20;;;25.40;50.00;;;-147.20;100.00;58430.41;5115668;28;20052;-48
2021/07/09 03:06:37;;;;;;;1.08;1.08;;;25.40;50.00;;;-147.20;100.00;58430.41;5113767;28;20487;-51
2021/07/09 03:09:05;;;;;;;1.00;1.00;;;25.40;50.00;;;-147.20;100.00;58430.41;5113972;28;20060;-50
2021/07/09 03:11:31;;;;;;;1.23;1.10;;;25.40;50.00;;;-147.20;100.00;58430.41;5115206;28;20403;-49
2021/07/09 03:13:57;;;;;;;1.02;0.98;;;25.40;50.00;;;-147.20;100.00;58430.41;5115276;28;20487;-48
2021/07/09 03:16:23;;;;;;;1.02;1.02;;;25.40;50.00;;;-147.20;100.00;58430.41;5115037;28;20052;-46
2021/07/09 03:18:49;;;;;;;1.17;1.05;;;25.40;50.00;;;-147.20;100.00;58430.41;5115034;28;20135;-46
2021/07/09 03:21:15;;;;;;;1.00;1.00;;;25.40;50.00;;;-147.20;100.00;58430.41;5115013;28;20052;-50
2021/07/09 03:23:40;;;;;;;0.93;0.93;;;25.40;50.00;;;-147.20;100.00;58430.41;5114969;28;20505;-48
2021/07/09 03:26:06;;;;;;;1.10;1.00;;;25.40;50.00;;;-147.20;100.00;58430.41;5114981;28;21426;-48
2021/07/09 03:28:32;;;;;;;0.93;0.90;;;25.40;49.90;;;-147.20;100.00;58430.41;5114163;28;20399;-49
2021/07/09 03:30:58;;;;;;;1.00;1.00;;;25.40;49.90;;;-147.20;100.00;58430.41;5095159;28;20472;-51
2021/07/09 03:33:24;;;;;;;0.82;0.82;;;25.40;49.90;;;-147.20;100.00;58430.41;5115386;28;20054;-47
2021/07/09 03:35:52;;;;;;;1.25;0.95;;;25.40;49.90;;;-147.20;100.00;58430.41;5115369;28;20376;-45
2021/07/09 03:38:19;;;;;;;1.00;1.00;;;25.40;49.90;;;-147.20;100.00;58430.41;5114842;28;20039;-49
2021/07/09 03:40:45;;;;;;;0.95;0.85;;;25.40;50.00;;;-147.20;100.00;58430.41;5114810;28;20051;-53
2021/07/09 03:43:11;;;;;;;1.30;1.20;;;25.40;50.00;;;-147.20;100.00;58430.41;5115199;28;20047;-47
2021/07/09 03:45:36;;;;;;;1.08;1.00;;;25.40;50.00;;;-147.20;100.00;58430.41;5114873;28;20047;-47
2021/07/09 03:48:05;;;;;;;1.10;1.00;;;25.40;50.00;;;-147.20;100.00;58430.41;5114606;28;20052;-47
2021/07/09 03:50:32;;;;;;;1.13;1.00;;;25.40;50.00;;;-147.20;100.00;58430.41;5114572;28;20505;-48
2021/07/09 03:52:59;;;;;;;1.15;1.05;;;25.40;50.10;;;-147.20;100.00;58430.41;5113166;28;20391;-45
2021/07/09 03:55:26;;;;;;;1.27;1.17;;;25.40;50.10;;;-147.20;100.00;58430.41;5114468;28;20052;-45
2021/07/09 03:57:53;;;;;;;1.05;1.05;;;25.40;50.10;;;-147.20;100.00;58430.41;5114664;28;20044;-51
2021/07/09 04:00:19;;;;;;;0.85;0.85;;;25.40;50.10;;;-147.20;100.00;58430.41;5114507;28;20051;-49
2021/07/09 04:02:45;;;;;;;1.10;1.00;;;25.40;50.10;;;-147.20;100.00;58430.41;5114676;28;20134;-52
2021/07/09 04:05:12;;;;;;;1.10;1.10;;;25.40;50.10;;;-147.20;100.00;58430.41;5114433;28;20467;-52
2021/07/09 04:07:39;;;;;;;1.00;1.00;;;25.40;50.10;;;-147.20;100.00;58430.41;5114613;28;20046;-52
2021/07/09 04:10:06;;;;;;;1.20;1.10;;;25.40;50.10;;;-147.20;100.00;58430.41;5114342;28;20089;-51
2021/07/09 04:12:31;;;;;;;1.00;1.00;;;25.40;50.10;;;-147.20;100.00;58430.41;5095470;28;20052;-50
2021/07/09 04:14:57;;;;;;;1.38;1.20;;;25.40;49.90;;;-147.20;100.00;58430.41;5113741;28;20054;-47
2021/07/09 04:17:23;;;;;;;1.05;1.05;;;25.50;50.40;;;-147.20;100.00;58430.41;5114425;28;20131;-49
2021/07/09 04:19:51;;;;;;;1.50;1.15;;;25.50;49.90;;;-147.20;100.00;58430.41;5114131;28;20050;-50
2021/07/09 04:22:18;;;;;;;0.93;0.90;;;25.50;49.90;;;-147.20;100.00;58430.41;5114062;28;20055;-51
2021/07/09 04:24:44;;;;;;;1.05;1.00;;;25.40;49.80;;;-147.20;100.00;58430.41;5114071;28;20052;-47
2021/07/09 04:27:11;;;;;;;1.13;1.10;;;25.50;49.90;;;-147.20;100.00;58430.41;5114105;28;20487;-52
2021/07/09 04:29:37;;;;;;;0.90;0.90;;;25.50;49.90;;;-147.20;100.00;58430.41;5113813;28;20405;-52
2021/07/09 04:32:03;;;;;;;1.13;1.00;;;25.50;49.90;;;-147.20;100.00;58430.41;5095733;28;20138;-48
2021/07/09 04:34:29;;;;;;;1.10;1.10;;;25.50;49.90;;;-147.20;100.00;58430.41;5095526;28;20046;-52
2021/07/09 04:36:54;;;;;;;1.33;1.23;;;25.40;49.80;;;-147.20;100.00;58430.41;5113781;28;20039;-53
2021/07/09 04:39:21;;;;;;;1.10;1.00;;;25.50;49.80;;;-147.20;100.00;58430.41;5113041;28;20089;-50
2021/07/09 04:41:47;;;;;;;1.30;1.20;;;25.50;49.80;;;-147.20;100.00;58430.41;5113529;28;20135;-48
2021/07/09 04:44:12;;;;;;;0.98;0.98;;;25.50;49.90;;;-147.20;100.00;58430.41;5113685;28;20047;-47
2021/07/09 04:46:38;;;;;;;1.08;1.08;;;25.50;49.80;;;-147.20;100.00;58430.41;5114055;28;20043;-48
2021/07/09 04:49:04;;;;;;;1.60;1.10;;;25.50;49.80;;;-147.20;100.00;58430.41;5113555;28;20058;-47
2021/07/09 04:51:30;;;;;;;0.88;0.88;;;25.50;49.80;;;-147.20;100.00;58430.41;5113482;28;20043;-48
2021/07/09 04:53:55;;;;;;;1.17;1.08;;;25.50;49.80;;;-147.20;100.00;58430.41;5113510;28;20046;-50
2021/07/09 04:56:21;;;;;;;1.13;1.05;;;25.50;49.70;;;-147.20;100.00;58430.41;5113376;28;20099;-49
2021/07/09 04:58:47;;;;;;;1.00;0.90;;;25.60;49.80;;;-147.20;100.00;58430.41;5113255;28;20051;-52
2021/07/09 05:01:13;;;;;;;1.00;1.00;;;25.60;49.80;;;-147.20;100.00;58430.41;5113676;28;20054;-52
2021/07/09 05:03:38;;;;;;;1.00;1.00;;;25.60;49.70;;;-147.20;100.00;58430.41;5113368;28;20043;-45
2021/07/09 05:06:04;;;;;;;1.20;1.10;;;25.60;49.70;;;-147.20;100.00;58430.41;5113254;28;20078;-47
2021/07/09 05:08:30;;;;;;;0.80;0.80;;;25.60;50.10;;;-147.20;100.00;58430.41;5113526;28;20138;-45
2021/07/09 05:10:56;;;;;;;1.17;1.08;;;25.60;49.90;;;-147.20;100.00;58430.41;5113201;28;20097;-49
2021/07/09 05:13:22;;;;;;;1.20;1.10;;;25.60;49.80;;;-147.20;100.00;58430.41;5111612;28;20146;-52
2021/07/09 05:15:48;;;;;;;1.10;1.10;;;25.60;49.80;;;-147.20;100.00;58430.41;5113019;28;20048;-49
2021/07/09 05:18:14;;;;;;;1.27;1.20;;;25.60;49.90;;;-147.20;100.00;58430.41;5113147;28;20130;-49
2021/07/09 05:20:39;;;;;;;1.05;1.02;;;25.60;49.90;;;-147.20;100.00;58430.41;5113582;28;20047;-46
2021/07/09 05:23:05;;;;;;;1.13;1.10;;;25.60;49.90;;;-147.20;100.00;58430.41;5113175;28;20046;-46
2021/07/09 05:25:31;;;;;;;0.90;0.90;;;25.70;49.90;;;-147.20;100.00;58430.41;5113697;28;20051;-47
2021/07/09 05:27:58;;;;;;;0.98;0.98;;;25.60;49.80;;;-147.20;100.00;58430.41;5113344;28;20130;-52
2021/07/09 05:30:25;;;;;;;0.90;0.90;;;25.70;49.80;;;-147.20;100.00;58430.41;5111550;28;20047;-51
2021/07/09 05:32:50;;;;;;;1.20;1.10;;;25.70;49.80;;;-147.20;100.00;58430.41;5113030;28;20055;-48
2021/07/09 05:35:16;;;;;;;1.00;0.90;;;25.70;49.70;;;-147.20;100.00;58430.41;5113127;28;20055;-48
2021/07/09 05:37:42;;;;;;;1.15;1.05;;;25.70;50.20;;;-147.20;100.00;58430.41;5113134;28;20096;-45
2021/07/09 05:40:09;;;;;;;1.38;1.20;;;25.70;49.60;;;-147.20;100.00;58430.41;5112537;28;20075;-48
2021/07/09 05:42:35;;;;;;;1.00;1.00;;;25.70;49.60;;;-147.20;100.00;58430.41;5112729;28;20054;-48
2021/07/09 05:45:01;;;;;;;1.20;1.10;;;25.80;49.70;;;-147.20;100.00;58430.41;5112791;28;20046;-49
2021/07/09 05:47:26;;;;;;;1.15;1.10;;;25.80;49.70;;;-147.20;100.00;58430.41;5112588;28;20407;-48
2021/07/09 05:49:53;;;;;;;1.00;1.00;;;25.80;49.70;;;-147.20;100.00;58430.41;5112639;28;20128;-48
2021/07/09 05:52:18;;;;;;;1.00;1.00;;;25.80;49.60;;;-147.20;100.00;58430.41;5115189;28;20043;-50
2021/07/09 05:54:44;;;;;;;1.10;1.00;;;25.80;49.50;;;-147.20;100.00;58430.41;5114867;28;20402;-49
2021/07/09 05:57:10;;;;;;;1.20;1.10;;;25.80;49.50;;;-147.20;100.00;58430.41;5116687;28;20051;-49
2021/07/09 05:59:37;;;;;;;1.20;1.10;;;25.80;49.50;;;-147.20;100.00;58430.41;5116871;28;20105;-51
2021/07/09 06:02:03;;;;;;;1.00;1.00;;;25.80;49.50;;;-147.20;100.00;58430.41;5116800;28;20047;-51
2021/07/09 06:04:29;;;;;;;1.08;1.00;;;25.80;49.40;;;-147.20;100.00;58430.41;5116203;28;20040;-47
2021/07/09 06:06:55;;;;;;;1.08;1.02;;;25.90;49.50;;;-147.20;100.00;58430.41;5116518;28;20085;-50
2021/07/09 06:09:21;;;;;;;1.00;1.00;;;25.90;49.50;;;-147.20;100.00;58430.41;5116451;28;20109;-49
2021/07/09 06:11:47;;;;;;;1.20;1.10;;;25.90;49.50;;;-147.20;100.00;58430.41;5116612;28;20051;-45
2021/07/09 06:14:12;;;;;;;0.90;0.90;;;25.90;49.40;;;-147.20;100.00;58430.41;5116403;28;20134;-52
2021/07/09 06:16:38;;;;;;;1.17;1.10;;;25.90;49.40;;;-147.20;100.00;58430.41;5116063;28;20035;-52
2021/07/09 06:19:04;;;;;;;1.00;1.00;;;25.90;49.40;;;-147.20;100.00;58430.41;5115913;28;20043;-50
2021/07/09 06:21:30;;;;;;;1.20;1.10;;;25.90;49.40;;;-147.20;100.00;58430.41;5115928;28;20055;-48
2021/07/09 06:23:56;;;;;;;1.38;1.27;;;25.90;49.40;;;-147.20;100.00;58430.41;5115941;28;20040;-51
2021/07/09 06:26:22;;;;;;;1.15;1.10;;;25.90;49.30;;;-147.20;100.00;58430.41;5116199;28;20081;-52
2021/07/09 06:28:49;;;;;;;1.30;1.20;;;25.90;49.30;;;-147.20;100.00;58430.41;5115635;28;20071;-50
2021/07/09 06:31:15;;;;;;;1.25;1.15;;;26.00;49.40;;;-147.20;100.00;58430.41;5115738;28;20130;-48
2021/07/09 06:33:41;;;;;;;0.90;0.90;;;26.00;49.40;;;-147.20;100.00;58430.41;5115824;28;20047;-51
2021/07/09 06:36:06;;;;;;;1.55;1.20;;;26.00;49.30;;;-147.20;100.00;58430.41;5116201;28;20096;-48
2021/07/09 06:38:32;;;;;;;1.20;1.10;;;26.00;49.30;;;-147.20;100.00;58430.41;5115552;28;20060;-48
2021/07/09 06:40:58;;;;;;;1.05;1.02;;;26.00;49.30;;;-147.20;100.00;58430.41;5115798;28;20047;-50
2021/07/09 06:43:24;;;;;;;1.02;0.90;;;26.00;49.30;;;-147.20;100.00;58430.41;5116169;28;20047;-51
2021/07/09 06:45:49;;;;;;;1.33;1.20;;;25.90;49.20;;;-147.20;100.00;58430.41;5097735;28;20531;-49
2021/07/09 06:48:15;;;;;;;1.02;1.02;;;26.00;49.20;;;-147.20;100.00;58430.41;5115553;28;20612;-52
2021/07/09 06:50:41;;;;;;;1.10;1.10;;;26.00;49.20;;;-147.20;100.00;58430.41;5115598;28;20058;-49
2021/07/09 06:53:07;;;;;;;1.50;1.40;;;26.00;49.10;;;-147.20;100.00;58430.41;5115402;28;20130;-51
2021/07/09 06:55:33;;;;;;;0.90;0.90;;;26.00;49.10;;;-147.20;100.00;58430.41;5115402;28;20491;-51
2021/07/09 06:58:00;;;;;;;1.10;1.00;;;26.00;49.10;;;-147.20;100.00;58430.41;5115894;28;20138;-49
2021/07/09 07:00:27;;;;;;;0.88;0.88;;;26.00;49.00;;;-147.20;100.00;58430.41;5115378;28;20399;-48
2021/07/09 07:02:55;;;;;;;1.20;1.10;;;26.00;49.00;;;-147.20;100.00;58430.41;5112881;28;20067;-49
2021/07/09 07:05:21;;;;;;;0.90;0.90;;;26.10;49.00;;;-147.20;100.00;58430.41;5115394;28;20062;-49
2021/07/09 07:07:47;;;;;;;0.95;0.95;;;26.10;49.00;;;-147.20;100.00;58430.41;5115530;28;20051;-49
2021/07/09 07:10:14;;;;;;;2.00;1.13;;;26.10;48.90;;;-147.20;100.00;58430.41;5115024;28;20447;-48
2021/07/09 07:12:42;;;;;;;1.48;1.23;;;26.10;48.90;;;-147.20;100.00;58430.41;5115698;28;20487;-47
2021/07/09 07:15:08;;;;;;;1.10;1.10;;;26.20;48.90;;;-147.20;100.00;58430.41;5114780;28;20604;-48
2021/07/09 07:17:35;;;;;;;1.13;1.08;;;26.10;48.80;;;-147.20;100.00;58430.41;5115503;28;20387;-50
2021/07/09 07:20:03;;;;;;;0.95;0.95;;;26.20;48.80;;;-147.20;100.00;58430.41;5115120;28;20447;-49
2021/07/09 07:22:28;;;;;;;1.00;1.00;;;26.20;48.80;;;-147.20;100.00;58430.41;5114961;28;20135;-49
2021/07/09 07:24:54;;;;;;;1.33;1.23;;;26.20;48.80;;;-147.20;100.00;58430.41;5115289;28;20077;-51
2021/07/09 07:27:24;;;;;;;2.53;1.10;;;26.20;48.80;;;-147.20;100.00;58430.41;5115200;28;20046;-47
2021/07/09 07:29:49;;;;;;;1.05;1.05;;;26.20;48.70;;;-147.20;100.00;58430.41;5115610;28;20044;-49
2021/07/09 07:32:16;;;;;;;1.35;1.25;;;26.20;48.60;;;-147.20;100.00;58430.41;5115210;28;20134;-50
2021/07/09 07:34:42;;;;;;;2.03;1.05;;;26.30;48.60;;;-147.20;100.00;58430.41;5115180;28;20097;-51
2021/07/09 07:37:09;;;;;;;1.20;1.10;;;26.30;48.60;;;-147.20;100.00;58430.41;5114796;28;20586;-52
2021/07/09 07:39:35;;;;;;;1.08;1.00;;;26.30;48.60;;;-147.20;100.00;58430.41;5114750;28;20044;-52
2021/07/09 07:42:03;;;;;;;1.02;1.00;;;26.30;48.50;;;-147.20;100.00;58430.41;5096554;28;20052;-48
2021/07/09 07:44:28;;;;;;;0.90;0.90;;;26.30;48.40;;;-147.20;100.00;58430.41;5114544;28;20395;-50
2021/07/09 07:46:55;;;;;;;1.20;1.08;;;26.30;48.40;;;-147.20;100.00;58430.41;5114871;28;20043;-51
2021/07/09 07:49:22;;;;;;;1.00;1.00;;;26.40;48.40;;;-147.20;100.00;58430.41;5115245;28;20395;-53
2021/07/09 07:51:50;;;;;;;1.77;1.10;;;26.40;48.40;;;-147.20;100.00;58430.41;5114543;28;20082;-47
2021/07/09 07:54:16;;;;;;;1.00;1.00;;;26.40;48.40;;;-147.20;100.00;58430.41;5114393;28;20063;-51
2021/07/09 07:56:42;;;;;;;1.40;0.90;;;26.40;48.40;;;-147.20;100.00;58430.41;5114529;28;20518;-52
2021/07/09 07:59:08;;;;;;;1.00;1.00;;;26.40;48.30;;;-147.20;100.00;58430.41;5114600;28;20054;-47
2021/07/09 08:01:34;;;;;;;1.17;1.15;;;26.40;48.30;;;-147.20;100.00;58430.41;5095763;28;20089;-52
2021/07/09 08:03:59;;;;;;;0.90;0.90;;;26.40;48.30;;;-147.20;100.00;58430.41;5114138;28;20043;-52
2021/07/09 08:06:25;;;;;;;0.93;0.93;;;26.50;48.30;;;-147.20;100.00;58430.41;5114427;28;20479;-50
2021/07/09 08:08:51;;;;;;;0.90;0.90;;;26.50;48.30;;;-147.20;100.00;58430.41;5114206;28;20131;-53
2021/07/09 08:11:17;;;;;;;1.23;1.15;;;26.50;48.30;;;-147.20;100.00;58430.41;5114449;28;20060;-51
2021/07/09 08:13:43;;;;;;;1.30;1.20;;;26.40;48.20;;;-147.20;100.00;58430.41;5114311;28;20088;-52
2021/07/09 08:16:11;;;;;;;0.77;0.77;;;26.50;48.20;;;-147.20;100.00;58430.41;5114268;28;20462;-52
2021/07/09 08:18:37;;;;;;;1.20;1.10;;;26.50;48.20;;;-147.20;100.00;58430.41;5113932;28;20153;-52
2021/07/09 08:21:04;;;;;;;0.93;0.93;;;26.50;48.20;;;-147.20;100.00;58430.41;5113948;28;20453;-51
2021/07/09 08:23:31;;;;;;;1.00;1.00;;;26.50;48.10;;;-147.20;100.00;58430.41;5112691;28;20463;-51
2021/07/09 08:25:57;;;;;;;1.20;1.10;;;26.50;48.10;;;-147.20;100.00;58430.41;5114023;28;20399;-49
2021/07/09 08:28:24;;;;;;;0.98;0.98;;;26.50;48.10;;;-147.20;100.00;58430.41;5113836;28;20046;-53
2021/07/09 08:30:50;;;;;;;1.00;0.90;;;26.50;48.00;;;-147.20;100.00;58430.41;5113878;28;20047;-49
2021/07/09 08:33:16;;;;;;;0.93;0.90;;;26.60;48.00;;;-147.20;100.00;58430.41;5095565;28;20399;-49
2021/07/09 08:35:42;;;;;;;0.98;0.93;;;26.60;48.00;;;-147.20;100.00;58430.41;5114189;28;20056;-50
2021/07/09 08:38:08;;;;;;;2.58;1.10;;;26.60;47.90;;;-147.20;100.00;58430.41;5113641;28;20567;-50
2021/07/09 08:40:36;;;;;;;1.30;1.15;;;26.70;47.90;;;-147.20;100.00;58430.41;5113812;28;20062;-51
2021/07/09 08:43:02;;;;;;;1.67;1.17;;;26.80;47.80;;;-147.20;100.00;58430.41;5113774;28;20044;-50
2021/07/09 08:45:28;;;;;;;1.20;1.10;;;26.80;47.70;;;-147.20;100.00;58430.41;5113720;28;20040;-49
2021/07/09 08:47:56;;;;;;;1.08;1.08;;;26.80;47.60;;;-147.20;100.00;58430.41;5113684;28;20056;-51
2021/07/09 08:50:22;;;;;;;1.10;1.10;;;26.80;47.60;;;-147.20;100.00;58430.41;5113680;28;20055;-49
2021/07/09 08:52:47;;;;;;;1.58;1.40;;;26.90;47.60;;;-147.20;100.00;58430.41;5113598;28;20044;-50
2021/07/09 08:55:13;;;;;;;1.10;1.10;;;26.90;47.50;;;-147.20;100.00;58430.41;5113625;28;20410;-50
2021/07/09 08:57:45;;;;;;;1.00;1.00;;;26.90;47.50;;;-147.20;100.00;58430.41;5113716;28;20534;-50
2021/07/09 09:00:26;;;;;;;0.90;0.90;;;26.90;47.50;;;-147.20;100.00;58430.41;5094830;28;20139;-53
2021/07/09 09:02:53;;;;;;;1.05;1.05;;;26.90;47.40;;;-147.20;100.00;58430.41;5113850;28;20050;-47
2021/07/09 09:05:27;;;;;;;1.35;1.25;;;27.00;47.40;;;-147.20;100.00;58430.41;5113424;28;20403;-50
2021/07/09 09:08:01;;;;;;;0.90;0.90;;;27.00;47.20;;;-147.20;100.00;58430.41;5113434;28;20138;-52
2021/07/09 09:10:38;;;;;;;0.90;0.90;;;27.10;47.20;;;-147.20;100.00;58430.41;5113455;28;20062;-53
2021/07/09 09:13:18;;;;;;;1.13;1.13;;;27.10;47.00;;;-147.20;100.00;58430.41;5113358;28;20044;-49
2021/07/09 09:16:01;;;;;;;1.23;1.13;;;27.10;47.00;;;-147.20;100.00;58430.41;5113422;28;20047;-50
2021/07/09 09:18:32;;;;;;;1.17;1.10;;;27.20;47.00;;;-147.20;100.00;58430.41;5112777;28;20051;-47
2021/07/09 09:21:13;;;;;;;0.80;0.80;;;27.20;47.50;;;-147.20;100.00;58430.41;5113709;28;20051;-48
2021/07/09 09:23:49;;;;;;;1.20;1.10;;;27.20;46.90;;;-147.20;100.00;58430.41;5113416;28;20495;-45
2021/07/09 09:26:45;;;;;;;1.27;1.17;;;27.20;46.90;;;-147.20;100.00;58430.41;5112682;28;20050;-52
2021/07/09 09:29:36;;;;;;;1.30;1.20;;;27.20;46.90;;;-147.20;100.00;58430.41;5112848;28;20058;-53
2021/07/09 09:32:09;;;;;;;1.00;1.00;;;27.20;46.90;;;-147.20;100.00;58430.41;5112637;28;20047;-51
2021/07/09 09:34:49;;;;;;;2.15;1.20;;;27.20;46.90;;;-147.20;100.00;58430.41;5113105;28;20052;-51
2021/07/09 09:37:23;;;;;;;1.02;1.00;;;27.20;46.90;;;-147.20;100.00;58430.41;5112187;28;20048;-49
2021/07/09 09:39:49;;;;;;;1.27;1.17;;;27.20;46.90;;;-147.20;100.00;58430.41;5112804;28;20568;-50
2021/07/09 09:42:18;;;;;;;1.00;1.00;;;27.20;46.90;;;-147.20;100.00;58430.41;5112902;28;20039;-50
2021/07/09 09:44:46;;;;;;;1.23;1.13;;;27.20;46.80;;;-147.20;100.00;58430.41;5112953;28;21023;-52
2021/07/09 09:47:21;;;;;;;1.00;1.00;;;27.20;46.90;;;-147.20;100.00;58430.41;5113208;28;20525;-49
2021/07/09 09:49:56;;;;;;;0.85;0.85;;;27.20;46.90;;;-147.20;100.00;58430.41;5113174;28;20059;-53
2021/07/09 09:52:41;;;;;;;1.17;1.15;;;27.20;46.90;;;-147.20;100.00;58430.41;5112777;28;20100;-52
2021/07/09 09:55:17;;;;;;;1.00;1.00;;;27.20;47.40;;;-147.20;100.00;58430.41;5109439;28;20044;-50
2021/07/09 09:57:45;;;;;;;1.13;1.00;;;27.20;46.90;;;-147.20;100.00;58430.41;5112574;28;20120;-50
2021/07/09 10:00:28;;;;;;;1.77;1.27;;;27.20;46.90;;;-147.20;100.00;58430.41;5112528;28;20052;-52
2021/07/09 10:02:56;;;;;;;0.90;0.90;;;27.20;46.90;;;-147.20;100.00;58430.41;5112757;28;20071;-54